• Join FlightAware (Why Join?)
  • Login
  • US Flag 
11:26AM EDT


 

Airport Tracker/Info


-or-


 

Live Flight TrackerFlight Track Log ✈ N556VP ✈ 28-Apr-2013 ✈ KBTR - KNEW

Flight Track Log - Related Links

Times and Time Zones

All times are in EDT time to prevent confusion due to time zone crossing. See the N556VP flight status page for this flight to view local times or setup timezone preferences in your user account.

Time Position Orientation Groundspeed Altitude Reporting Facility
EDT Latitude Longitude Course Direction KTS MPH feet Rate Location/Type
11:17AM 30.5183 -90.9728 120° Southeast 287 330 4,500  Level Houston Center
11:18AM 30.4717 -90.8658 117° Southeast 284 327 6,300 1,080 Climbing Houston Center
11:19AM 30.4406 -90.7928 116° Southeast 285 328 7,000 360 Climbing Houston Center
11:20AM 30.4131 -90.6992 109° East 309 356 7,000  Level Houston Center
11:21AM 30.3241 -90.6684 119° Southeast  Level Estimated
11:21AM 30.4103 -90.6028 92° East 302 348 7,000  Level Houston Center
11:22AM 30.2858 -90.5904 120° Southeast  Level FlightAware Approximate
11:22AM 30.4200 -90.5036 83° East 316 364 7,000  Level Houston Center
11:23AM 30.4467 -90.4108 72° East 310 357 6,600 -600 Descending Houston Center
11:24AM 30.4736 -90.3275 69° East 297 342 5,800 -840 Descending Houston Center
11:25AM 30.5000 -90.2353 72° East 281 323 5,000 -480 Descending Houston Center
11:26AM 30.4975 -90.1581 92° East 259 298 5,000  Level Houston Center
11:27AM 30.4822 -90.0669 101° East 262 302 5,000 -600 Level Houston Center
11:28AM 30.4269 -90.0406 158° South 262 302 3,800 -960 Descending Houston Center
11:28AM 30.4169 -90.0394 175° South 258 297 3,900 -840 Climbing Houston Center
11:29AM 30.3619 -90.0336 175° South 232 267 3,000 -1,200 Descending Houston Center
11:29AM 30.3528 -90.0336 180° South 243 280 2,700 -660 Descending Houston Center
11:30AM 30.2994 -90.0339 180° South 185 213 2,300 -420 Descending Houston Center
11:31AM 30.2469 -90.0289 175° South 188 216 2,000 -180 Descending Houston Center
11:32AM 30.1800 -90.0292 180° South 236 272 2,000 -300 Level Houston Center
11:33AM 30.1175 -90.0319 182° South 253 291 1,400 -720 Descending Houston Center
11:33AM 30.1081 -90.0317 179° South 234 269 1,200 -960 Descending Houston Center
11:34AM 30.0628 -90.0314 180° South 192 221 200 -540 Descending Houston Center
11:35AM 30.0264 -90.0294 177° South 181 208 100 -120 Descending Houston Center